Terminal Aerodrome Forecast
Issued by NWS Wilmington, OH

Current Version | Previous Version | Graphics & Text | Print | Product List | Glossary On
Versions: 1 2 3 4 5 6 7 8 9 10 11 12 13 14 15 16 17 18 19 20 21 22 23 24 25 26 27 28 29 30 31 32 33
000
FTUS41 KILN 252300
TAFCVG
TAF
KCVG 252339Z 2600/2706 20004KT P6SM BKN120
     FM261600 22010KT P6SM FEW025 SCT080 BKN250
     FM262100 23009KT P6SM VCSH SCT030 BKN250
     FM270300 23006KT P6SM VCTS SCT025CB OVC150
      TEMPO 2704/2706 2SM -TSRA SCT012 OVC020CB=

USA.gov is the U.S. government's official web portal to all federal, state and local government web resources and services.